Blenker, Wisconsin
Current Conditions -  °F | °C
As of 3:03 AM on Monday 24 Nov 2014 (Local Time) from KMFI Reporting Station
Haze Haze  
Wind Chill:   Ceiling: 200
Heat Index:   Visibility: 4mi
Dew Point:   Wind: 15mph
Humidity: 97%   Direction: 310°NW
Pressure: 29.09"   Gusts: NA
Location:  44.61°N, 89.92°W
Report Text: KMFI 240903Z AUTO 31013KT 4SM BR OVC002 04/04 A2909 RMK AO2 T00440039
Loading
Personal Weather Stations






























Interactive Weather Map New forecast layout! Learn more

10-Day Weather Forecast

Advertisements
Track Severe Weather on mobile